Brighton Township, Michigan
Current Conditions -  °F | °C
As of 2:54 PM on Thursday 30 Oct 2014 (Local Time) from KOZW Reporting Station
Overcast Overcast  
Wind Chill: 45°   Ceiling: 4500
Heat Index: 47°   Visibility: 10mi
Dew Point: 34°   Wind: 6mph
Humidity: 60%   Direction: 250°WSW
Pressure: 30.07"   Gusts: NA
Location:  42.5333°N, 83.7735°W
Report Text: KOZW 301854Z AUTO 25005KT 10SM SCT037 OVC045 09/01 A3007 RMK AO2 T00860013
Loading
Personal Weather Stations






























Interactive Weather Map
Tropical Storm Tracking
New forecast layout! Learn more

10-Day Weather Forecast

Advertisements
Track Severe Weather on mobile